Time;durP1;ratioP1;P1;durP2;ratioP2;P2;SDS_P1;SDS_P2;PMS_P1;PMS_P2;Temp;Humidity;BMP_temperature;BMP_pressure;BME280_temperature;BME280_humidity;BME280_pressure;Samples;Min_cycle;Max_cycle;Signal;HPM_P1;HPM_P2
2022/05/17 00:01:54;;;;;;;6.78;3.17;;;17.50;99.90;;;;;;5054072;28;20265;-50
2022/05/17 00:04:20;;;;;;;4.68;3.42;;;17.50;99.90;;;;;;5053623;28;20218;-50
2022/05/17 00:06:46;;;;;;;5.97;3.13;;;17.50;99.90;;;;;;5054325;28;20194;-49
2022/05/17 00:09:12;;;;;;;5.15;3.30;;;17.50;99.90;;;;;;5054297;28;20159;-50
2022/05/17 00:11:38;;;;;;;7.70;4.22;;;17.30;99.90;;;;;;5053983;28;20538;-48
2022/05/17 00:14:04;;;;;;;8.60;4.22;;;17.40;99.90;;;;;;5053894;28;20178;-50
2022/05/17 00:16:30;;;;;;;7.57;3.45;;;17.50;99.90;;;;;;5053909;28;20178;-47
2022/05/17 00:18:56;;;;;;;5.63;3.35;;;17.30;99.90;;;;;;5054265;28;20163;-48
2022/05/17 00:21:21;;;;;;;5.45;3.38;;;17.30;99.90;;;;;;5054000;28;20174;-48
2022/05/17 00:23:47;;;;;;;10.10;3.15;;;17.30;99.90;;;;;;5053842;28;20654;-47
2022/05/17 00:26:13;;;;;;;5.70;3.28;;;17.20;99.90;;;;;;5054124;28;20217;-46
2022/05/17 00:28:39;;;;;;;7.82;4.70;;;17.10;99.90;;;;;;5052481;28;20162;-47
2022/05/17 00:31:08;;;;;;;8.05;3.63;;;17.10;99.90;;;;;;5053671;28;20177;-48
2022/05/17 00:33:34;;;;;;;6.90;3.40;;;17.00;99.90;;;;;;5053572;28;20181;-46
2022/05/17 00:35:59;;;;;;;6.32;3.50;;;16.90;99.90;;;;;;5053505;28;20203;-47
2022/05/17 00:38:25;;;;;;;11.75;3.70;;;16.90;99.90;;;;;;5053531;28;20165;-47
2022/05/17 00:40:51;;;;;;;5.78;3.65;;;16.90;99.90;;;;;;5053717;28;20174;-47
2022/05/17 00:44:42;;;;;;;7.82;3.42;;;16.90;99.90;;;;;;5053504;28;20167;-46
2022/05/17 00:46:16;;;;;;;9.65;3.25;;;16.90;99.90;;;;;;5053463;28;20715;-47
2022/05/17 00:48:41;;;;;;;7.13;3.65;;;16.80;99.90;;;;;;5053605;28;20213;-48
2022/05/17 00:51:07;;;;;;;9.32;3.22;;;16.80;99.90;;;;;;5052890;28;20224;-46
2022/05/17 00:53:34;;;;;;;5.40;3.63;;;16.80;99.90;;;;;;5053187;28;20170;-47
2022/05/17 00:56:07;;;;;;;8.80;3.53;;;17.00;99.90;;;;;;5053022;28;20217;-47
2022/05/17 00:58:53;;;;;;;14.60;3.38;;;16.90;99.90;;;;;;5053181;28;20697;-47
2022/05/17 01:01:21;;;;;;;7.70;3.30;;;16.90;99.90;;;;;;5053088;28;20167;-47
2022/05/17 01:03:52;;;;;;;12.20;3.88;;;16.90;99.90;;;;;;5053035;28;20573;-46
2022/05/17 01:06:18;;;;;;;12.25;3.83;;;16.90;99.90;;;;;;5052972;28;20162;-48
2022/05/17 01:08:44;;;;;;;5.05;3.53;;;16.90;99.90;;;;;;5053280;28;20164;-47
2022/05/17 01:11:10;;;;;;;11.95;3.72;;;16.90;99.90;;;;;;5053019;28;20197;-48
2022/05/17 01:16:22;;;;;;;8.15;3.30;;;16.90;99.90;;;;;;5053111;28;20316;-48
2022/05/17 01:18:49;;;;;;;8.40;4.28;;;16.90;99.90;;;;;;5052833;28;20526;-48
2022/05/17 01:21:14;;;;;;;6.90;3.47;;;16.80;99.90;;;;;;5053237;28;20586;-50
2022/05/17 01:23:40;;;;;;;14.95;3.70;;;16.80;99.90;;;;;;5052925;28;20169;-50
2022/05/17 01:26:11;;;;;;;6.85;3.38;;;16.80;99.90;;;;;;5052724;28;20162;-49
2022/05/17 01:28:37;;;;;;;6.35;2.92;;;16.80;99.90;;;;;;5052565;28;20194;-49
2022/05/17 01:31:04;;;;;;;8.95;3.40;;;16.80;99.90;;;;;;5052607;28;20178;-49
2022/05/17 01:33:32;;;;;;;7.00;3.50;;;16.80;99.90;;;;;;5052509;28;20220;-47
2022/05/17 01:35:58;;;;;;;8.00;3.38;;;16.70;99.90;;;;;;5052637;28;20233;-48
2022/05/17 01:38:24;;;;;;;8.73;3.67;;;16.70;99.90;;;;;;5052566;28;20224;-48
2022/05/17 01:40:49;;;;;;;7.57;3.33;;;16.70;99.90;;;;;;5052381;28;20199;-48
2022/05/17 01:43:15;;;;;;;10.35;3.97;;;16.70;99.90;;;;;;5052870;28;20182;-48
2022/05/17 01:45:40;;;;;;;9.85;4.10;;;16.70;99.90;;;;;;5052355;28;20163;-47
2022/05/17 01:48:06;;;;;;;7.15;3.55;;;16.70;99.90;;;;;;5052326;28;20648;-48
2022/05/17 01:50:31;;;;;;;10.52;3.80;;;16.60;99.90;;;;;;5052230;28;20194;-48
2022/05/17 01:52:57;;;;;;;6.15;2.95;;;16.50;99.90;;;;;;5052293;28;20177;-49
2022/05/17 01:55:23;;;;;;;7.15;3.00;;;16.40;99.90;;;;;;5052020;28;20701;-47
2022/05/17 01:57:48;;;;;;;12.50;4.10;;;16.40;99.90;;;;;;5052627;28;20177;-48
2022/05/17 02:00:15;;;;;;;7.43;3.20;;;16.40;99.90;;;;;;5052380;28;20492;-49
2022/05/17 02:02:41;;;;;;;8.18;3.83;;;16.30;99.90;;;;;;5051627;28;20656;-47
2022/05/17 02:05:08;;;;;;;5.82;3.20;;;16.10;99.90;;;;;;5051867;28;20222;-49
2022/05/17 02:07:34;;;;;;;7.30;2.92;;;16.10;99.90;;;;;;5052192;28;20254;-47
2022/05/17 02:10:00;;;;;;;6.05;3.35;;;16.10;99.90;;;;;;5051883;28;20198;-47
2022/05/17 02:12:25;;;;;;;7.45;3.72;;;16.10;99.90;;;;;;5051991;28;20229;-48
2022/05/17 02:14:52;;;;;;;6.47;3.50;;;16.10;99.90;;;;;;5052041;28;20221;-47
2022/05/17 02:17:17;;;;;;;11.38;3.67;;;16.10;99.90;;;;;;5051967;28;20297;-48
2022/05/17 02:19:43;;;;;;;9.73;3.13;;;16.10;99.90;;;;;;5052162;28;20254;-47
2022/05/17 02:22:10;;;;;;;7.35;3.20;;;16.10;99.90;;;;;;5051790;28;20628;-48
2022/05/17 02:24:35;;;;;;;10.15;3.67;;;16.10;99.90;;;;;;5051776;28;20587;-49
2022/05/17 02:27:01;;;;;;;10.70;4.13;;;16.10;99.90;;;;;;5051778;28;20174;-47
2022/05/17 02:29:29;;;;;;;10.93;3.85;;;16.10;99.90;;;;;;5051815;28;20166;-48
2022/05/17 02:31:54;;;;;;;11.43;3.70;;;16.10;99.90;;;;;;5051793;28;20574;-49
2022/05/17 02:34:20;;;;;;;12.80;3.70;;;16.00;99.90;;;;;;5051692;28;20183;-49
2022/05/17 02:36:46;;;;;;;7.95;3.30;;;16.00;99.90;;;;;;5052238;28;20544;-47
2022/05/17 02:39:12;;;;;;;9.02;3.78;;;16.00;99.90;;;;;;5051716;28;20163;-49
2022/05/17 02:41:37;;;;;;;11.70;3.83;;;15.90;99.90;;;;;;5051701;28;20163;-50
2022/05/17 02:44:03;;;;;;;9.38;3.78;;;15.90;99.90;;;;;;5051927;28;20655;-49
2022/05/17 02:46:33;;;;;;;7.43;3.45;;;15.80;99.90;;;;;;5051627;28;20649;-49
2022/05/17 02:49:01;;;;;;;9.85;3.40;;;15.80;99.90;;;;;;5051546;28;20205;-50
2022/05/17 02:51:27;;;;;;;9.80;3.33;;;15.70;99.90;;;;;;5051599;28;20181;-49
2022/05/17 02:53:53;;;;;;;6.38;3.28;;;15.70;99.90;;;;;;5051593;28;20670;-50
2022/05/17 02:56:19;;;;;;;11.65;3.42;;;15.70;99.90;;;;;;5051424;28;20211;-48
2022/05/17 02:58:44;;;;;;;12.63;3.70;;;15.60;99.90;;;;;;5051715;28;20193;-50
2022/05/17 03:01:10;;;;;;;16.52;3.92;;;15.60;99.90;;;;;;5051464;28;20171;-50
2022/05/17 03:03:40;;;;;;;4.95;3.30;;;15.50;99.90;;;;;;5051326;28;20283;-49
2022/05/17 03:06:07;;;;;;;6.60;3.72;;;15.50;99.90;;;;;;5051466;28;20536;-50
2022/05/17 03:08:33;;;;;;;8.88;3.63;;;15.40;99.90;;;;;;5050141;28;20189;-50
2022/05/17 03:10:59;;;;;;;6.32;3.65;;;15.40;99.90;;;;;;5051365;28;20558;-50
2022/05/17 03:13:24;;;;;;;11.57;4.63;;;15.40;99.90;;;;;;5052511;28;20224;-49
2022/05/17 03:15:50;;;;;;;10.23;3.17;;;15.50;99.90;;;;;;5054967;28;20198;-50
2022/05/17 03:18:16;;;;;;;10.75;3.78;;;15.50;99.90;;;;;;5055356;28;20624;-50
2022/05/17 03:20:42;;;;;;;9.43;3.92;;;15.60;99.90;;;;;;5055360;28;20210;-49
2022/05/17 03:23:07;;;;;;;8.57;4.10;;;15.50;99.90;;;;;;5054955;28;20257;-50
2022/05/17 03:25:33;;;;;;;10.85;5.00;;;15.40;99.90;;;;;;5054922;28;20274;-49
2022/05/17 03:27:58;;;;;;;9.77;4.07;;;15.50;99.90;;;;;;5054857;28;20197;-49
2022/05/17 03:30:24;;;;;;;6.35;3.60;;;15.40;99.90;;;;;;5054814;28;20175;-50
2022/05/17 03:32:51;;;;;;;9.15;3.20;;;15.40;99.90;;;;;;5054979;28;20166;-49
2022/05/17 03:35:17;;;;;;;7.22;3.95;;;15.40;99.90;;;;;;5054675;28;20230;-47
2022/05/17 03:37:42;;;;;;;10.63;3.85;;;15.50;99.90;;;;;;5054989;28;20178;-50
2022/05/17 03:40:09;;;;;;;12.65;4.80;;;15.50;99.90;;;;;;5054953;28;20628;-50
2022/05/17 03:42:35;;;;;;;8.43;4.25;;;15.50;99.90;;;;;;5054814;28;20257;-50
2022/05/17 03:45:02;;;;;;;9.63;4.55;;;15.60;99.90;;;;;;5054638;28;20166;-46
2022/05/17 03:47:27;;;;;;;9.02;4.07;;;15.60;99.90;;;;;;5054495;28;20167;-47
2022/05/17 03:49:53;;;;;;;6.75;3.80;;;15.60;99.90;;;;;;5054457;28;20681;-47
2022/05/17 03:52:23;;;;;;;8.02;3.88;;;15.60;99.90;;;;;;5054529;28;20627;-47
2022/05/17 03:54:53;;;;;;;8.18;3.25;;;15.60;99.90;;;;;;5054280;28;20194;-47
2022/05/17 03:57:19;;;;;;;7.68;3.03;;;15.60;99.90;;;;;;5054271;28;20179;-46
2022/05/17 03:59:44;;;;;;;6.40;3.28;;;15.60;99.90;;;;;;5054828;28;20218;-47
2022/05/17 04:02:10;;;;;;;13.35;3.47;;;15.70;99.90;;;;;;5052983;28;20262;-48
2022/05/17 04:04:35;;;;;;;8.70;4.20;;;15.70;99.90;;;;;;5054152;28;21113;-47
2022/05/17 04:07:01;;;;;;;16.02;4.82;;;15.70;99.90;;;;;;5052738;28;20639;-46
2022/05/17 04:09:26;;;;;;;9.63;3.92;;;15.70;99.90;;;;;;5054198;28;20167;-46
2022/05/17 04:11:52;;;;;;;12.48;5.60;;;15.80;99.90;;;;;;5054056;28;20163;-47
2022/05/17 04:14:17;;;;;;;9.10;4.32;;;15.90;99.90;;;;;;5053846;28;20181;-46
2022/05/17 04:16:43;;;;;;;6.38;4.03;;;15.90;99.90;;;;;;5054207;28;20166;-49
2022/05/17 04:19:09;;;;;;;11.02;4.45;;;16.00;99.90;;;;;;5054088;28;20170;-47
2022/05/17 04:21:35;;;;;;;10.93;4.57;;;16.10;99.90;;;;;;5054082;28;20181;-48
2022/05/17 04:24:00;;;;;;;9.00;3.95;;;16.10;99.90;;;;;;5053836;28;20162;-49
2022/05/17 04:26:26;;;;;;;15.07;3.80;;;16.20;99.90;;;;;;5053095;28;20211;-48
2022/05/17 04:28:52;;;;;;;7.65;3.90;;;16.30;99.90;;;;;;5053823;28;20178;-50
2022/05/17 04:31:17;;;;;;;9.32;4.13;;;16.30;99.90;;;;;;5053611;28;20167;-48
2022/05/17 04:33:43;;;;;;;7.28;4.00;;;16.40;99.90;;;;;;5053867;28;20216;-46
2022/05/17 04:36:10;;;;;;;7.90;3.63;;;16.40;99.90;;;;;;5053301;28;20675;-50
2022/05/17 04:38:36;;;;;;;8.75;4.60;;;16.40;99.90;;;;;;5053484;28;20206;-48
2022/05/17 04:41:02;;;;;;;9.85;4.22;;;16.50;99.90;;;;;;5053467;28;20213;-47
2022/05/17 04:43:29;;;;;;;9.13;4.57;;;16.60;99.90;;;;;;5053453;28;20198;-46
2022/05/17 04:45:55;;;;;;;11.82;4.47;;;16.70;99.90;;;;;;5053251;28;20721;-46
2022/05/17 04:48:24;;;;;;;7.35;3.97;;;16.70;99.90;;;;;;5053237;28;20159;-49
2022/05/17 04:50:50;;;;;;;8.38;4.18;;;16.70;99.90;;;;;;5053492;28;20182;-49
2022/05/17 04:53:15;;;;;;;11.55;3.95;;;16.80;99.90;;;;;;5052042;28;20536;-48
2022/05/17 04:55:41;;;;;;;9.00;3.75;;;16.80;99.90;;;;;;5052927;28;20255;-48
2022/05/17 04:58:06;;;;;;;8.75;4.00;;;16.90;99.90;;;;;;5052975;28;20249;-47
2022/05/17 05:00:32;;;;;;;7.82;3.88;;;16.90;99.90;;;;;;5052860;28;20171;-49
2022/05/17 05:02:57;;;;;;;15.63;4.78;;;16.90;99.90;;;;;;5052789;28;20163;-46
2022/05/17 05:05:23;;;;;;;9.40;4.95;;;17.00;99.90;;;;;;5052730;28;20254;-48
2022/05/17 05:07:49;;;;;;;13.80;4.15;;;17.00;99.90;;;;;;5052819;28;20159;-46
2022/05/17 05:10:15;;;;;;;11.77;3.45;;;17.10;99.90;;;;;;5053455;28;20536;-50
2022/05/17 05:12:41;;;;;;;12.73;3.78;;;17.00;99.90;;;;;;5053153;28;20171;-47
2022/05/17 05:15:08;;;;;;;8.70;4.93;;;17.00;99.90;;;;;;5052707;28;20267;-49
2022/05/17 05:17:36;;;;;;;6.53;4.10;;;17.00;99.90;;;;;;5052646;28;20169;-50
2022/05/17 05:20:01;;;;;;;9.32;3.70;;;17.00;99.90;;;;;;5052750;28;20170;-49
2022/05/17 05:22:30;;;;;;;5.07;3.97;;;17.00;99.90;;;;;;5052619;28;20163;-49
2022/05/17 05:24:56;;;;;;;10.02;4.75;;;17.10;99.90;;;;;;5052553;28;20615;-50
2022/05/17 05:27:22;;;;;;;12.90;3.92;;;17.20;99.90;;;;;;5052562;28;20205;-49
2022/05/17 05:29:47;;;;;;;8.75;3.90;;;17.20;99.90;;;;;;5052567;28;20170;-48
2022/05/17 05:32:13;;;;;;;13.55;5.43;;;17.20;99.90;;;;;;5052878;28;20537;-49
2022/05/17 05:34:39;;;;;;;7.22;3.75;;;17.30;99.90;;;;;;5052615;28;20678;-49
2022/05/17 05:37:05;;;;;;;7.85;3.47;;;17.30;99.90;;;;;;5051474;28;20179;-49
2022/05/17 05:39:31;;;;;;;12.48;3.70;;;17.40;99.90;;;;;;5052308;28;20558;-49
2022/05/17 05:41:56;;;;;;;7.40;3.80;;;17.40;99.90;;;;;;5052312;28;20624;-48
2022/05/17 05:44:22;;;;;;;8.52;4.75;;;17.50;99.90;;;;;;5052350;28;20177;-49
2022/05/17 05:46:48;;;;;;;13.40;4.97;;;17.60;99.90;;;;;;5052185;28;20162;-50
2022/05/17 05:49:13;;;;;;;22.95;5.25;;;17.70;99.90;;;;;;5052482;28;20189;-49
2022/05/17 05:51:40;;;;;;;16.55;4.78;;;17.80;99.90;;;;;;5052249;28;20163;-54
2022/05/17 05:54:06;;;;;;;7.40;4.28;;;17.80;99.90;;;;;;5047859;28;20208;-53
2022/05/17 05:56:32;;;;;;;7.57;4.32;;;17.90;99.90;;;;;;5050879;28;20171;-55
2022/05/17 05:58:58;;;;;;;8.18;4.45;;;17.80;99.90;;;;;;5050960;28;20170;-49
2022/05/17 06:01:23;;;;;;;12.13;5.72;;;17.90;99.90;;;;;;5050776;28;20170;-47
2022/05/17 06:03:50;;;;;;;10.45;5.43;;;18.00;99.90;;;;;;5050720;28;20244;-47
2022/05/17 06:06:16;;;;;;;12.18;5.25;;;18.30;99.90;;;;;;5050870;28;20640;-45
2022/05/17 06:08:42;;;;;;;10.75;5.53;;;18.50;99.90;;;;;;5050985;28;20171;-47
2022/05/17 06:11:07;;;;;;;10.80;5.43;;;18.70;99.90;;;;;;5050836;28;20269;-48
2022/05/17 06:13:33;;;;;;;10.10;5.00;;;18.80;99.90;;;;;;5050592;28;20671;-46
2022/05/17 06:15:59;;;;;;;12.43;4.40;;;19.00;99.90;;;;;;5050695;28;20562;-45
2022/05/17 06:18:25;;;;;;;10.25;4.22;;;19.00;99.90;;;;;;5050473;28;20166;-46
2022/05/17 06:20:55;;;;;;;6.93;4.45;;;19.00;99.90;;;;;;5049341;28;20177;-45
2022/05/17 06:23:23;;;;;;;10.57;3.75;;;19.10;99.90;;;;;;5050323;28;20179;-46
2022/05/17 06:25:49;;;;;;;8.65;3.53;;;19.30;99.90;;;;;;5050641;28;20170;-48
2022/05/17 06:28:14;;;;;;;9.45;3.67;;;19.40;99.90;;;;;;5050558;28;20178;-47
2022/05/17 06:30:43;;;;;;;9.45;5.20;;;19.30;99.90;;;;;;5050410;28;20186;-49
2022/05/17 06:33:10;;;;;;;5.97;3.72;;;19.40;99.90;;;;;;5049150;28;20640;-49
2022/05/17 06:35:38;;;;;;;10.30;4.32;;;19.30;99.90;;;;;;5050424;28;21250;-44
2022/05/17 06:38:04;;;;;;;7.90;4.07;;;19.20;99.90;;;;;;5050329;28;20178;-48
2022/05/17 06:40:31;;;;;;;8.10;4.90;;;19.30;99.90;;;;;;5050669;28;20236;-46
2022/05/17 06:42:56;;;;;;;9.45;3.72;;;19.40;99.90;;;;;;5050220;28;20218;-47
2022/05/17 06:45:22;;;;;;;9.10;4.55;;;19.50;99.90;;;;;;5050148;28;20172;-45
2022/05/17 06:47:47;;;;;;;8.43;3.83;;;19.60;99.90;;;;;;5050452;28;20629;-47
2022/05/17 06:50:13;;;;;;;12.10;4.68;;;19.60;99.90;;;;;;5054451;28;20624;-43
2022/05/17 06:52:38;;;;;;;29.00;5.40;;;19.80;99.90;;;;;;5054312;28;20196;-51
2022/05/17 06:55:06;;;;;;;11.73;4.30;;;19.70;99.90;;;;;;5052708;28;20317;-46
2022/05/17 06:57:32;;;;;;;13.57;4.60;;;19.70;99.90;;;;;;5054288;28;20174;-45
2022/05/17 06:59:58;;;;;;;15.80;6.05;;;19.90;99.90;;;;;;5054156;28;20174;-47
2022/05/17 07:02:24;;;;;;;11.65;4.30;;;19.90;99.90;;;;;;5054244;28;20171;-48
2022/05/17 07:04:49;;;;;;;19.83;5.75;;;20.00;99.90;;;;;;5053850;28;20220;-50
2022/05/17 07:07:15;;;;;;;15.02;5.03;;;20.20;99.90;;;;;;5054120;28;20159;-48
2022/05/17 07:09:40;;;;;;;9.93;4.85;;;20.20;99.90;;;;;;5054097;28;20170;-50
2022/05/17 07:14:51;;;;;;;9.30;4.18;;;20.40;99.90;;;;;;5053684;28;20252;-48
2022/05/17 07:17:20;;;;;;;9.30;4.65;;;20.60;99.90;;;;;;5053640;28;20182;-44
2022/05/17 07:19:47;;;;;;;10.05;4.53;;;20.30;99.90;;;;;;5054114;28;20284;-44
2022/05/17 07:22:13;;;;;;;16.90;6.05;;;20.30;99.90;;;;;;5054175;28;20194;-44
2022/05/17 07:24:41;;;;;;;8.75;4.57;;;20.50;99.90;;;;;;5053712;28;20158;-45
2022/05/17 07:27:07;;;;;;;8.40;5.40;;;20.80;99.90;;;;;;5053435;28;20179;-44
2022/05/17 07:29:33;;;;;;;9.98;4.53;;;20.70;99.90;;;;;;5051800;28;20585;-44
2022/05/17 07:31:59;;;;;;;9.90;4.93;;;20.70;99.90;;;;;;5053386;28;20163;-44
2022/05/17 07:34:26;;;;;;;10.93;5.55;;;20.80;99.90;;;;;;5053302;28;20224;-44
2022/05/17 07:36:51;;;;;;;17.08;6.38;;;20.90;99.90;;;;;;5053607;28;20179;-44
2022/05/17 07:39:17;;;;;;;11.45;5.60;;;20.90;99.90;;;;;;5053664;28;20690;-47
2022/05/17 07:41:42;;;;;;;14.48;6.32;;;21.10;99.90;;;;;;5053537;28;20697;-48
2022/05/17 07:44:09;;;;;;;14.93;6.03;;;21.10;99.90;;;;;;5053415;28;20171;-46
2022/05/17 07:46:35;;;;;;;14.18;6.32;;;21.30;99.90;;;;;;5053332;28;20162;-45
2022/05/17 07:49:01;;;;;;;17.58;5.88;;;21.20;99.90;;;;;;5053195;28;20173;-44
2022/05/17 07:51:27;;;;;;;11.65;5.65;;;21.30;99.90;;;;;;5052037;28;20171;-44
2022/05/17 07:53:53;;;;;;;9.35;5.25;;;21.50;99.90;;;;;;5053668;28;20175;-45
2022/05/17 07:56:19;;;;;;;15.82;5.13;;;21.70;99.90;;;;;;5053351;28;20214;-45
2022/05/17 07:58:44;;;;;;;11.50;5.75;;;21.90;99.90;;;;;;5053562;28;20297;-47
2022/05/17 08:01:10;;;;;;;57.13;15.35;;;22.00;99.90;;;;;;5052311;28;20163;-46
2022/05/17 08:03:36;;;;;;;12.25;6.20;;;22.00;99.90;;;;;;5052763;28;20562;-46
2022/05/17 08:06:01;;;;;;;14.05;5.13;;;22.00;99.90;;;;;;5053034;28;20547;-46
2022/05/17 08:08:27;;;;;;;13.35;5.53;;;22.10;99.90;;;;;;5052136;28;20174;-45
2022/05/17 08:10:53;;;;;;;35.78;9.68;;;22.10;99.90;;;;;;5053192;28;20639;-45
2022/05/17 08:13:21;;;;;;;35.20;21.83;;;22.20;99.90;;;;;;5052819;28;20180;-45
2022/05/17 08:15:48;;;;;;;11.45;6.25;;;22.40;99.90;;;;;;5052620;28;20234;-43
2022/05/17 08:18:14;;;;;;;13.80;5.88;;;22.50;99.90;;;;;;5053030;28;20175;-44
2022/05/17 08:20:40;;;;;;;15.23;6.72;;;22.70;99.90;;;;;;5052716;28;20185;-44
2022/05/17 08:23:06;;;;;;;9.68;7.43;;;22.90;99.90;;;;;;5052482;28;20167;-44
2022/05/17 08:28:17;;;;;;;18.00;15.07;;;23.00;99.90;;;;;;5052535;28;20173;-44
2022/05/17 08:30:44;;;;;;;14.70;6.05;;;22.90;99.90;;;;;;5052894;28;20252;-45
2022/05/17 08:33:15;;;;;;;15.30;5.95;;;23.20;99.90;;;;;;5052276;28;20238;-48
2022/05/17 08:35:43;;;;;;;14.98;5.45;;;23.30;99.90;;;;;;5052482;28;20224;-45
2022/05/17 08:38:11;;;;;;;11.32;5.22;;;23.20;99.90;;;;;;5052441;28;20171;-46
2022/05/17 08:40:59;;;;;;;12.68;5.53;;;23.10;99.90;;;;;;5052303;28;20176;-46
2022/05/17 08:43:28;;;;;;;11.70;4.85;;;23.10;99.90;;;;;;5052418;28;20167;-45
2022/05/17 08:46:07;;;;;;;8.13;3.90;;;23.40;99.90;;;;;;5052331;28;20171;-47
2022/05/17 08:48:42;;;;;;;9.73;3.92;;;23.40;99.90;;;;;;5052004;28;20170;-45
2022/05/17 08:51:11;;;;;;;7.60;3.67;;;23.60;99.90;;;;;;5052318;28;20166;-44
2022/05/17 08:53:37;;;;;;;10.98;5.50;;;24.10;99.90;;;;;;5052009;28;20198;-50
2022/05/17 08:56:03;;;;;;;9.70;3.78;;;24.30;99.90;;;;;;5051726;28;20295;-43
2022/05/17 08:58:32;;;;;;;12.07;5.53;;;24.00;99.90;;;;;;5051817;28;20198;-48
2022/05/17 09:01:12;;;;;;;8.43;3.60;;;23.90;99.90;;;;;;5051778;28;20166;-43
2022/05/17 09:04:20;;;;;;;12.70;4.13;;;24.00;99.90;;;;;;5051821;28;20168;-48
2022/05/17 09:07:00;;;;;;;11.60;3.72;;;24.10;99.90;;;;;;5052994;28;20170;-44
2022/05/17 09:09:31;;;;;;;11.60;3.63;;;24.10;99.90;;;;;;5052881;28;20693;-50
2022/05/17 09:12:17;;;;;;;14.82;9.95;;;24.00;99.90;;;;;;5052727;28;20174;-49
2022/05/17 09:14:47;;;;;;;10.57;5.80;;;24.00;99.90;;;;;;5053033;28;20229;-48
2022/05/17 09:17:17;;;;;;;5.72;2.53;;;24.40;99.90;;;;;;5053032;28;20535;-47
2022/05/17 09:19:43;;;;;;;7.50;2.75;;;24.30;99.90;;;;;;5053042;28;20195;-47
2022/05/17 09:22:10;;;;;;;9.98;2.90;;;24.40;99.90;;;;;;5052912;28;20245;-49
2022/05/17 09:24:39;;;;;;;8.88;3.55;;;24.30;99.90;;;;;;5052832;28;20170;-45
2022/05/17 09:27:08;;;;;;;10.57;6.63;;;24.40;99.90;;;;;;5052793;28;20210;-50
2022/05/17 09:29:46;;;;;;;9.13;3.28;;;24.40;99.90;;;;;;5052227;28;20178;-48
2022/05/17 09:32:22;;;;;;;5.75;3.35;;;24.50;99.90;;;;;;5052750;28;20241;-47
2022/05/17 09:35:02;;;;;;;7.97;3.45;;;24.60;99.90;;;;;;5052420;28;20205;-48
2022/05/17 09:37:38;;;;;;;6.72;2.70;;;24.60;99.90;;;;;;5052380;28;20178;-47
2022/05/17 09:40:08;;;;;;;7.72;2.55;;;24.50;99.90;;;;;;5052184;28;20181;-47
2022/05/17 09:42:56;;;;;;;6.93;2.47;;;24.70;99.90;;;;;;5052260;28;20181;-47
2022/05/17 09:45:49;;;;;;;9.13;2.90;;;24.80;99.90;;;;;;5052294;28;20207;-45
2022/05/17 09:48:29;;;;;;;4.72;2.10;;;24.50;99.90;;;;;;5051257;28;20200;-47
2022/05/17 09:53:48;;;;;;;7.13;2.55;;;24.80;99.90;;;;;;5052205;28;20578;-46
2022/05/17 09:56:18;;;;;;;5.07;2.15;;;24.70;99.90;;;;;;5052397;28;20566;-46
2022/05/17 09:58:45;;;;;;;10.23;2.00;;;24.50;99.90;;;;;;5052531;28;20241;-45
2022/05/17 10:01:21;;;;;;;4.72;1.85;;;24.50;99.90;;;;;;5052357;28;20181;-46
2022/05/17 10:04:05;;;;;;;6.53;2.35;;;24.60;99.90;;;;;;5051947;28;20217;-46
2022/05/17 10:06:35;;;;;;;4.38;1.88;;;24.80;99.90;;;;;;5052027;28;20174;-46
2022/05/17 10:09:07;;;;;;;5.80;2.20;;;24.70;99.90;;;;;;5051920;28;20635;-45
2022/05/17 10:12:04;;;;;;;8.73;2.67;;;24.70;99.90;;;;;;5051990;28;20264;-45
2022/05/17 10:14:40;;;;;;;7.88;2.05;;;24.70;99.90;;;;;;5052170;28;20217;-45
2022/05/17 10:17:10;;;;;;;8.93;2.42;;;24.80;99.90;;;;;;5051864;28;20201;-46
2022/05/17 10:19:53;;;;;;;6.32;2.45;;;24.70;99.90;;;;;;5051829;28;20173;-45
2022/05/17 10:22:42;;;;;;;8.23;2.70;;;24.80;99.90;;;;;;5052110;28;20576;-47
2022/05/17 10:25:48;;;;;;;6.78;2.80;;;24.90;99.90;;;;;;5058516;28;20170;-49
2022/05/17 10:28:40;;;;;;;7.88;3.58;;;25.10;99.90;;;;;;5058389;28;20174;-46
2022/05/17 10:31:18;;;;;;;5.70;3.10;;;25.30;99.90;;;;;;5058373;28;20166;-46
2022/05/17 10:33:51;;;;;;;9.90;4.97;;;25.30;99.90;;;;;;5058756;28;20169;-47
2022/05/17 10:36:32;;;;;;;6.82;2.85;;;25.20;99.90;;;;;;5058352;28;20201;-45
2022/05/17 10:39:31;;;;;;;9.35;4.75;;;25.40;99.90;;;;;;5058544;28;20162;-49
2022/05/17 10:41:57;;;;;;;14.35;6.72;;;25.40;99.90;;;;;;5058587;28;20176;-46
2022/05/17 10:44:37;;;;;;;7.47;3.22;;;25.50;99.90;;;;;;5058661;28;20261;-46
2022/05/17 10:47:11;;;;;;;8.80;3.40;;;25.50;99.90;;;;;;5058279;28;20227;-47
2022/05/17 10:49:57;;;;;;;11.30;3.30;;;26.00;99.90;;;;;;5058369;28;20170;-46
2022/05/17 10:52:36;;;;;;;8.98;4.35;;;26.00;99.90;;;;;;5058548;28;20178;-46
2022/05/17 10:55:31;;;;;;;18.65;10.48;;;26.00;99.90;;;;;;5058060;28;20193;-47
2022/05/17 10:58:28;;;;;;;17.58;10.98;;;25.80;99.90;;;;;;5058229;28;20166;-50
2022/05/17 11:01:01;;;;;;;9.30;4.30;;;25.70;99.90;;;;;;5058266;28;20231;-46
2022/05/17 11:03:58;;;;;;;9.73;5.63;;;25.80;99.90;;;;;;5058023;28;20219;-48
2022/05/17 11:06:40;;;;;;;17.45;8.38;;;25.90;99.90;;;;;;5056313;28;20589;-46
2022/05/17 11:09:11;;;;;;;26.25;15.05;;;25.90;99.90;;;;;;5058129;28;20218;-47
2022/05/17 11:11:43;;;;;;;25.27;11.40;;;26.00;99.90;;;;;;5058333;28;20170;-49
2022/05/17 11:14:18;;;;;;;7.15;3.13;;;26.00;99.90;;;;;;5058403;28;20170;-47
2022/05/17 11:16:53;;;;;;;12.43;7.85;;;25.90;99.90;;;;;;5058269;28;20185;-47
2022/05/17 11:19:36;;;;;;;19.77;9.68;;;26.00;99.90;;;;;;5058299;28;20508;-48
2022/05/17 11:22:14;;;;;;;15.38;6.72;;;26.10;99.90;;;;;;5058259;28;20261;-46
2022/05/17 11:25:14;;;;;;;23.17;8.85;;;26.30;99.90;;;;;;5057923;28;20631;-47
2022/05/17 11:27:57;;;;;;;18.65;5.85;;;26.50;99.90;;;;;;5057921;28;20279;-48
2022/05/17 11:30:38;;;;;;;9.70;4.43;;;26.30;99.90;;;;;;5057989;28;20527;-47
2022/05/17 11:33:11;;;;;;;17.70;9.57;;;26.10;99.90;;;;;;5057939;28;20761;-45
2022/05/17 11:35:46;;;;;;;7.25;3.30;;;26.00;99.90;;;;;;5055315;28;20206;-47
2022/05/17 11:38:34;;;;;;;13.57;5.45;;;25.50;99.90;;;;;;5055067;28;20162;-50
2022/05/17 11:41:21;;;;;;;9.20;4.45;;;25.70;99.90;;;;;;5054647;28;20170;-50
2022/05/17 11:44:18;;;;;;;22.02;10.48;;;25.60;99.90;;;;;;5054366;28;20201;-50
2022/05/17 11:46:50;;;;;;;9.70;5.20;;;25.80;99.90;;;;;;5054368;28;20186;-51
2022/05/17 11:49:15;;;;;;;22.85;11.10;;;25.80;99.90;;;;;;5054789;28;20170;-50
2022/05/17 11:51:59;;;;;;;21.27;11.85;;;26.00;99.90;;;;;;5054471;28;20181;-50
2022/05/17 11:54:44;;;;;;;9.95;4.78;;;25.90;99.90;;;;;;5054306;28;20648;-50
2022/05/17 11:57:33;;;;;;;14.45;6.13;;;26.20;99.90;;;;;;5054272;28;20249;-46
2022/05/17 12:00:22;;;;;;;12.18;3.08;;;26.30;99.90;;;;;;5044192;28;20221;-51
2022/05/17 12:02:53;;;;;;;7.70;4.22;;;26.80;99.90;;;;;;5050345;28;20189;-50
2022/05/17 12:05:43;;;;;;;18.70;7.05;;;26.60;99.90;;;;;;5054021;28;20221;-50
2022/05/17 12:08:27;;;;;;;6.03;2.70;;;26.70;99.90;;;;;;5054416;28;20204;-51
2022/05/17 12:11:13;;;;;;;16.50;4.43;;;26.60;99.90;;;;;;5054157;28;20178;-50
2022/05/17 12:13:53;;;;;;;8.60;3.25;;;26.50;99.90;;;;;;5053996;28;20200;-47
2022/05/17 12:16:25;;;;;;;8.38;3.25;;;26.60;99.90;;;;;;5054131;28;20292;-49
2022/05/17 12:19:01;;;;;;;16.13;4.07;;;26.90;99.90;;;;;;5053967;28;20155;-46
2022/05/17 12:22:02;;;;;;;9.80;3.45;;;26.40;99.90;;;;;;5053994;28;20157;-45
2022/05/17 12:24:56;;;;;;;10.43;5.00;;;26.80;99.90;;;;;;5053572;28;20190;-46
2022/05/17 12:27:29;;;;;;;17.10;6.15;;;26.80;99.90;;;;;;5053865;28;20534;-45
2022/05/17 12:33:08;;;;;;;9.23;2.78;;;27.20;99.90;;;;;;5053615;28;20176;-48
2022/05/17 12:35:34;;;;;;;7.32;2.47;;;27.20;99.90;;;;;;5053595;28;20210;-45
2022/05/17 12:38:00;;;;;;;8.30;3.05;;;27.60;99.90;;;;;;5053632;28;20255;-46
2022/05/17 12:43:25;;;;;;;5.63;2.80;;;27.20;99.90;;;;;;5053489;28;20530;-46
2022/05/17 12:45:52;;;;;;;8.32;3.30;;;27.30;99.90;;;;;;5052944;28;20166;-47
2022/05/17 12:48:33;;;;;;;7.43;3.78;;;27.50;99.90;;;;;;5053395;28;20170;-46
2022/05/17 12:51:03;;;;;;;5.47;3.05;;;27.50;99.90;;;;;;5053279;28;20170;-47
2022/05/17 12:53:44;;;;;;;10.90;6.85;;;27.80;99.90;;;;;;5053517;28;20170;-45
2022/05/17 12:56:24;;;;;;;9.38;4.78;;;27.50;99.90;;;;;;5053228;28;20659;-47
2022/05/17 12:58:59;;;;;;;7.85;4.25;;;27.60;99.90;;;;;;5053149;28;20620;-46
2022/05/17 13:01:42;;;;;;;7.90;2.42;;;27.40;99.90;;;;;;5053212;28;20175;-46
2022/05/17 13:04:14;;;;;;;4.78;1.85;;;27.30;99.90;;;;;;5052930;28;20214;-45
2022/05/17 13:06:45;;;;;;;9.48;6.03;;;27.20;99.90;;;;;;5053262;28;20216;-45
2022/05/17 13:09:28;;;;;;;5.15;3.30;;;27.00;99.90;;;;;;5052901;28;20178;-46
2022/05/17 13:11:56;;;;;;;8.52;5.72;;;27.20;99.90;;;;;;5053182;28;20157;-45
2022/05/17 13:14:28;;;;;;;6.88;4.88;;;27.40;99.90;;;;;;5053058;28;20178;-46
2022/05/17 13:17:07;;;;;;;7.28;3.20;;;27.50;99.90;;;;;;5052865;28;20239;-47